Ana Sayfa
METAR-TAF:

METAR-TAF

Havaalanları :

Cidde, Suudi Arabistan

Enlem: 21-42N, Boylam: 039-11E, yükseklik: 15 m

Güncel hava durumu gözlemi

Rapor saat 01:00 UTC de 54 dakika önce yapıldı.
Rüzgar kuzeydan 4 kt
Sıcaklık 21°C
Nem 60%
Basınç 1016 hPa
Görüş mesafesi 10 km veya daha fazla
1500 m altında bulut yok ve kümülonimbus yok

METAR: OEJN 110100Z 01004KT CAVOK 21/13 Q1016 NOSIG

Saat: 04:54 (01:54 UTC)

Tahmin

Rapor saat 23:00 UTC de 2 saat ve 54 dakika önce yapıldı.
Ayın 11'si saat 00 UTC'den ayın 12'si saat 06 UTC'ye kadar geçerli Tahmin
Rüzgar değişken yönden 3 kt
Görüş mesafesi 10 km veya daha fazla
1500 m altında bulut yok ve kümülonimbus yok
Dönüşüyor
ayın 11'si saat 06 UTC'den ayın 11'si saat 08 UTC'ye kadar
Rüzgar kuzeybatıdan 15 kt
Görüş mesafesi 10 km veya daha fazla
4000 ft yükseklikte az bulutlu

TAF: OEJN 102300Z 1100/1206 VRB03KT CAVOK BECMG 1106/1108 32015KT 9999 FEW040

4.000'den fazla havaalanı için hava durumu gözlemleri ve tahminleri (METAR ve TAF raporları).

Kullanılabilir istasyonlar harita üzerinde sarı ve kırmızı noktalarla gösterilir.

İstasyonun adını görmek için fareyi noktanın üzerinde gezdirin.

Sonrasında hava gözlem ve tahminlerini görmek için tıklayın.

Haritayı değiştirmek için: yaklaştırmak için siyah artı işaretli yeşil düğmeye ve uzaklaştırmak için de eksi işaretli düğmeye hızla tıklayın; bitişik haritalar için yeşil okları kullanın.


METAR-TAF: